sensor_id;sensor_type;location;lat;lon;timestamp;P1;durP1;ratioP1;P2;durP2;ratioP2
46745;SDS011;32493;50.514;9.678;2023-07-13T00:00:58;7.78;;;1.40;;
46745;SDS011;32493;50.514;9.678;2023-07-13T00:03:04;3.05;;;1.42;;
46745;SDS011;32493;50.514;9.678;2023-07-13T00:05:10;3.92;;;1.40;;
46745;SDS011;32493;50.514;9.678;2023-07-13T00:07:16;3.40;;;1.67;;
46745;SDS011;32493;50.514;9.678;2023-07-13T00:09:23;3.85;;;1.50;;
46745;SDS011;32493;50.514;9.678;2023-07-13T00:11:29;3.88;;;1.73;;
46745;SDS011;32493;50.514;9.678;2023-07-13T00:13:34;3.05;;;1.63;;
46745;SDS011;32493;50.514;9.678;2023-07-13T00:15:41;4.85;;;1.50;;
46745;SDS011;32493;50.514;9.678;2023-07-13T00:17:49;3.05;;;1.65;;
46745;SDS011;32493;50.514;9.678;2023-07-13T00:19:56;4.05;;;2.00;;
46745;SDS011;32493;50.514;9.678;2023-07-13T00:22:02;3.95;;;1.50;;
46745;SDS011;32493;50.514;9.678;2023-07-13T00:24:11;7.40;;;1.80;;
46745;SDS011;32493;50.514;9.678;2023-07-13T00:26:15;4.07;;;1.50;;
46745;SDS011;32493;50.514;9.678;2023-07-13T00:28:27;1.55;;;1.15;;
46745;SDS011;32493;50.514;9.678;2023-07-13T00:30:33;9.48;;;1.60;;
46745;SDS011;32493;50.514;9.678;2023-07-13T00:32:38;7.20;;;1.70;;
46745;SDS011;32493;50.514;9.678;2023-07-13T00:34:46;3.83;;;1.60;;
46745;SDS011;32493;50.514;9.678;2023-07-13T00:36:52;4.60;;;1.33;;
46745;SDS011;32493;50.514;9.678;2023-07-13T00:38:55;5.88;;;1.67;;
46745;SDS011;32493;50.514;9.678;2023-07-13T00:41:03;4.30;;;1.55;;
46745;SDS011;32493;50.514;9.678;2023-07-13T00:43:15;3.30;;;1.42;;
46745;SDS011;32493;50.514;9.678;2023-07-13T00:48:06;3.20;;;1.33;;
46745;SDS011;32493;50.514;9.678;2023-07-13T00:50:16;2.30;;;1.23;;
46745;SDS011;32493;50.514;9.678;2023-07-13T00:52:27;3.58;;;1.63;;
46745;SDS011;32493;50.514;9.678;2023-07-13T00:56:43;2.58;;;1.63;;
46745;SDS011;32493;50.514;9.678;2023-07-13T00:58:49;3.83;;;1.70;;
46745;SDS011;32493;50.514;9.678;2023-07-13T01:00:57;4.90;;;1.80;;
46745;SDS011;32493;50.514;9.678;2023-07-13T01:05:08;2.88;;;1.70;;
46745;SDS011;32493;50.514;9.678;2023-07-13T01:09:31;6.43;;;2.03;;
46745;SDS011;32493;50.514;9.678;2023-07-13T01:11:37;2.67;;;1.42;;
46745;SDS011;32493;50.514;9.678;2023-07-13T01:13:43;3.65;;;1.60;;
46745;SDS011;32493;50.514;9.678;2023-07-13T01:15:51;2.33;;;1.75;;
46745;SDS011;32493;50.514;9.678;2023-07-13T01:17:57;2.70;;;1.55;;
46745;SDS011;32493;50.514;9.678;2023-07-13T01:20:04;2.72;;;1.63;;
46745;SDS011;32493;50.514;9.678;2023-07-13T01:22:15;4.47;;;1.60;;
46745;SDS011;32493;50.514;9.678;2023-07-13T01:24:27;4.22;;;1.65;;
46745;SDS011;32493;50.514;9.678;2023-07-13T01:26:33;5.03;;;1.67;;
46745;SDS011;32493;50.514;9.678;2023-07-13T01:28:45;3.65;;;1.90;;
46745;SDS011;32493;50.514;9.678;2023-07-13T01:30:51;3.58;;;1.50;;
46745;SDS011;32493;50.514;9.678;2023-07-13T01:32:57;3.53;;;1.60;;
46745;SDS011;32493;50.514;9.678;2023-07-13T01:35:03;4.70;;;1.60;;
46745;SDS011;32493;50.514;9.678;2023-07-13T01:37:14;2.88;;;1.70;;
46745;SDS011;32493;50.514;9.678;2023-07-13T01:39:20;4.28;;;1.48;;
46745;SDS011;32493;50.514;9.678;2023-07-13T01:41:26;3.95;;;1.92;;
46745;SDS011;32493;50.514;9.678;2023-07-13T01:43:31;2.75;;;1.83;;
46745;SDS011;32493;50.514;9.678;2023-07-13T01:45:34;4.05;;;1.73;;
46745;SDS011;32493;50.514;9.678;2023-07-13T01:47:41;4.10;;;1.73;;
46745;SDS011;32493;50.514;9.678;2023-07-13T01:49:52;3.20;;;1.75;;
46745;SDS011;32493;50.514;9.678;2023-07-13T01:51:59;2.38;;;1.67;;
46745;SDS011;32493;50.514;9.678;2023-07-13T01:54:08;3.00;;;1.67;;
46745;SDS011;32493;50.514;9.678;2023-07-13T01:56:14;2.70;;;1.55;;
46745;SDS011;32493;50.514;9.678;2023-07-13T01:58:21;7.18;;;1.80;;
46745;SDS011;32493;50.514;9.678;2023-07-13T02:00:27;2.90;;;1.77;;
46745;SDS011;32493;50.514;9.678;2023-07-13T02:02:33;3.95;;;1.75;;
46745;SDS011;32493;50.514;9.678;2023-07-13T02:04:39;4.55;;;2.05;;
46745;SDS011;32493;50.514;9.678;2023-07-13T02:06:45;4.28;;;1.88;;
46745;SDS011;32493;50.514;9.678;2023-07-13T02:08:50;2.33;;;1.60;;
46745;SDS011;32493;50.514;9.678;2023-07-13T02:11:02;4.85;;;2.25;;
46745;SDS011;32493;50.514;9.678;2023-07-13T02:13:08;2.15;;;1.55;;
46745;SDS011;32493;50.514;9.678;2023-07-13T02:15:14;3.38;;;2.10;;
46745;SDS011;32493;50.514;9.678;2023-07-13T02:17:21;5.10;;;1.70;;
46745;SDS011;32493;50.514;9.678;2023-07-13T02:19:27;4.72;;;2.08;;
46745;SDS011;32493;50.514;9.678;2023-07-13T02:21:32;6.45;;;1.77;;
46745;SDS011;32493;50.514;9.678;2023-07-13T02:23:38;5.80;;;1.88;;
46745;SDS011;32493;50.514;9.678;2023-07-13T02:25:43;4.93;;;1.80;;
46745;SDS011;32493;50.514;9.678;2023-07-13T02:27:52;3.13;;;1.88;;
46745;SDS011;32493;50.514;9.678;2023-07-13T02:29:58;5.15;;;1.90;;
46745;SDS011;32493;50.514;9.678;2023-07-13T02:32:05;3.97;;;2.17;;
46745;SDS011;32493;50.514;9.678;2023-07-13T02:34:08;4.70;;;1.73;;
46745;SDS011;32493;50.514;9.678;2023-07-13T02:36:14;3.42;;;2.00;;
46745;SDS011;32493;50.514;9.678;2023-07-13T02:38:20;5.45;;;1.83;;
46745;SDS011;32493;50.514;9.678;2023-07-13T02:40:29;5.15;;;1.67;;
46745;SDS011;32493;50.514;9.678;2023-07-13T02:42:38;4.32;;;1.92;;
46745;SDS011;32493;50.514;9.678;2023-07-13T02:44:46;5.63;;;2.00;;
46745;SDS011;32493;50.514;9.678;2023-07-13T02:46:52;6.15;;;1.98;;
46745;SDS011;32493;50.514;9.678;2023-07-13T02:48:58;2.22;;;1.63;;
46745;SDS011;32493;50.514;9.678;2023-07-13T02:51:02;2.92;;;1.73;;
46745;SDS011;32493;50.514;9.678;2023-07-13T02:53:08;3.63;;;1.53;;
46745;SDS011;32493;50.514;9.678;2023-07-13T02:55:13;3.40;;;1.80;;
46745;SDS011;32493;50.514;9.678;2023-07-13T02:57:20;5.30;;;1.70;;
46745;SDS011;32493;50.514;9.678;2023-07-13T02:59:25;3.47;;;1.90;;
46745;SDS011;32493;50.514;9.678;2023-07-13T03:01:34;3.08;;;1.75;;
46745;SDS011;32493;50.514;9.678;2023-07-13T03:03:39;4.30;;;1.80;;
46745;SDS011;32493;50.514;9.678;2023-07-13T03:05:45;4.90;;;1.85;;
46745;SDS011;32493;50.514;9.678;2023-07-13T03:07:57;3.78;;;1.80;;
46745;SDS011;32493;50.514;9.678;2023-07-13T03:10:04;3.47;;;1.70;;
46745;SDS011;32493;50.514;9.678;2023-07-13T03:12:18;4.03;;;2.33;;
46745;SDS011;32493;50.514;9.678;2023-07-13T03:14:26;2.85;;;1.75;;
46745;SDS011;32493;50.514;9.678;2023-07-13T03:16:36;4.18;;;1.90;;
46745;SDS011;32493;50.514;9.678;2023-07-13T03:18:45;4.97;;;1.90;;
46745;SDS011;32493;50.514;9.678;2023-07-13T03:20:54;5.90;;;1.98;;
46745;SDS011;32493;50.514;9.678;2023-07-13T03:22:58;4.03;;;1.80;;
46745;SDS011;32493;50.514;9.678;2023-07-13T03:25:05;4.57;;;1.58;;
46745;SDS011;32493;50.514;9.678;2023-07-13T03:27:13;4.45;;;1.90;;
46745;SDS011;32493;50.514;9.678;2023-07-13T03:29:23;3.42;;;1.95;;
46745;SDS011;32493;50.514;9.678;2023-07-13T03:31:30;4.28;;;2.67;;
46745;SDS011;32493;50.514;9.678;2023-07-13T03:35:46;3.90;;;1.55;;
46745;SDS011;32493;50.514;9.678;2023-07-13T03:37:52;3.05;;;1.95;;
46745;SDS011;32493;50.514;9.678;2023-07-13T03:39:58;3.03;;;1.70;;
46745;SDS011;32493;50.514;9.678;2023-07-13T03:42:06;3.50;;;1.70;;
46745;SDS011;32493;50.514;9.678;2023-07-13T03:44:15;3.63;;;2.25;;
46745;SDS011;32493;50.514;9.678;2023-07-13T03:46:27;2.50;;;1.75;;
46745;SDS011;32493;50.514;9.678;2023-07-13T03:48:34;6.38;;;1.85;;
46745;SDS011;32493;50.514;9.678;2023-07-13T03:50:44;5.90;;;2.10;;
46745;SDS011;32493;50.514;9.678;2023-07-13T03:52:51;4.78;;;1.85;;
46745;SDS011;32493;50.514;9.678;2023-07-13T03:54:57;4.22;;;1.98;;
46745;SDS011;32493;50.514;9.678;2023-07-13T03:57:02;3.72;;;2.00;;
46745;SDS011;32493;50.514;9.678;2023-07-13T03:59:10;2.75;;;1.60;;
46745;SDS011;32493;50.514;9.678;2023-07-13T04:01:16;3.85;;;1.75;;
46745;SDS011;32493;50.514;9.678;2023-07-13T04:03:21;5.63;;;1.73;;
46745;SDS011;32493;50.514;9.678;2023-07-13T04:05:29;4.28;;;1.98;;
46745;SDS011;32493;50.514;9.678;2023-07-13T04:07:38;6.13;;;1.98;;
46745;SDS011;32493;50.514;9.678;2023-07-13T04:09:44;4.72;;;2.47;;
46745;SDS011;32493;50.514;9.678;2023-07-13T04:11:50;4.80;;;2.08;;
46745;SDS011;32493;50.514;9.678;2023-07-13T04:13:55;3.88;;;1.92;;
46745;SDS011;32493;50.514;9.678;2023-07-13T04:16:01;5.18;;;1.90;;
46745;SDS011;32493;50.514;9.678;2023-07-13T04:18:08;4.07;;;2.00;;
46745;SDS011;32493;50.514;9.678;2023-07-13T04:20:14;3.93;;;2.27;;
46745;SDS011;32493;50.514;9.678;2023-07-13T04:22:21;2.95;;;1.90;;
46745;SDS011;32493;50.514;9.678;2023-07-13T04:24:29;4.10;;;2.10;;
46745;SDS011;32493;50.514;9.678;2023-07-13T04:26:35;4.47;;;2.20;;
46745;SDS011;32493;50.514;9.678;2023-07-13T04:28:41;8.88;;;1.90;;
46745;SDS011;32493;50.514;9.678;2023-07-13T04:30:48;5.00;;;1.92;;
46745;SDS011;32493;50.514;9.678;2023-07-13T04:32:55;5.15;;;2.50;;
46745;SDS011;32493;50.514;9.678;2023-07-13T04:35:01;6.22;;;2.38;;
46745;SDS011;32493;50.514;9.678;2023-07-13T04:37:07;7.75;;;2.40;;
46745;SDS011;32493;50.514;9.678;2023-07-13T04:39:12;3.10;;;2.10;;
46745;SDS011;32493;50.514;9.678;2023-07-13T04:41:21;7.97;;;2.20;;
46745;SDS011;32493;50.514;9.678;2023-07-13T04:43:27;4.75;;;2.25;;
46745;SDS011;32493;50.514;9.678;2023-07-13T04:45:34;4.20;;;2.40;;
46745;SDS011;32493;50.514;9.678;2023-07-13T04:47:42;6.53;;;2.17;;
46745;SDS011;32493;50.514;9.678;2023-07-13T04:49:48;6.07;;;2.30;;
46745;SDS011;32493;50.514;9.678;2023-07-13T04:51:54;4.50;;;2.47;;
46745;SDS011;32493;50.514;9.678;2023-07-13T04:54:00;4.72;;;2.20;;
46745;SDS011;32493;50.514;9.678;2023-07-13T04:56:06;6.15;;;2.15;;
46745;SDS011;32493;50.514;9.678;2023-07-13T04:58:15;3.78;;;2.00;;
46745;SDS011;32493;50.514;9.678;2023-07-13T05:00:21;4.32;;;2.22;;
46745;SDS011;32493;50.514;9.678;2023-07-13T05:02:29;9.55;;;2.47;;
46745;SDS011;32493;50.514;9.678;2023-07-13T05:04:35;5.63;;;2.17;;
46745;SDS011;32493;50.514;9.678;2023-07-13T05:06:40;9.30;;;2.90;;
46745;SDS011;32493;50.514;9.678;2023-07-13T05:08:46;7.22;;;2.20;;
46745;SDS011;32493;50.514;9.678;2023-07-13T05:10:51;6.70;;;2.40;;
46745;SDS011;32493;50.514;9.678;2023-07-13T05:12:57;3.50;;;2.28;;
46745;SDS011;32493;50.514;9.678;2023-07-13T05:15:07;3.67;;;1.88;;
46745;SDS011;32493;50.514;9.678;2023-07-13T05:17:14;5.88;;;2.05;;
46745;SDS011;32493;50.514;9.678;2023-07-13T05:19:19;4.82;;;2.22;;
46745;SDS011;32493;50.514;9.678;2023-07-13T05:21:25;3.15;;;1.80;;
46745;SDS011;32493;50.514;9.678;2023-07-13T05:23:31;6.85;;;1.90;;
46745;SDS011;32493;50.514;9.678;2023-07-13T05:25:37;6.82;;;1.83;;
46745;SDS011;32493;50.514;9.678;2023-07-13T05:27:44;6.07;;;2.10;;
46745;SDS011;32493;50.514;9.678;2023-07-13T05:29:49;7.30;;;2.20;;
46745;SDS011;32493;50.514;9.678;2023-07-13T05:31:58;7.15;;;1.45;;
46745;SDS011;32493;50.514;9.678;2023-07-13T05:34:03;5.55;;;1.55;;
46745;SDS011;32493;50.514;9.678;2023-07-13T05:36:09;9.60;;;1.90;;
46745;SDS011;32493;50.514;9.678;2023-07-13T05:38:15;6.53;;;1.75;;
46745;SDS011;32493;50.514;9.678;2023-07-13T05:40:20;5.53;;;1.42;;
46745;SDS011;32493;50.514;9.678;2023-07-13T05:42:25;7.18;;;1.63;;
46745;SDS011;32493;50.514;9.678;2023-07-13T05:44:32;9.13;;;1.67;;
46745;SDS011;32493;50.514;9.678;2023-07-13T05:46:38;4.15;;;1.38;;
46745;SDS011;32493;50.514;9.678;2023-07-13T05:48:46;8.80;;;1.80;;
46745;SDS011;32493;50.514;9.678;2023-07-13T05:50:54;6.65;;;1.55;;
46745;SDS011;32493;50.514;9.678;2023-07-13T05:53:01;3.80;;;1.23;;
46745;SDS011;32493;50.514;9.678;2023-07-13T05:55:07;7.55;;;1.30;;
46745;SDS011;32493;50.514;9.678;2023-07-13T05:57:13;6.07;;;1.60;;
46745;SDS011;32493;50.514;9.678;2023-07-13T05:59:18;6.00;;;1.15;;
46745;SDS011;32493;50.514;9.678;2023-07-13T06:01:27;8.02;;;1.58;;
46745;SDS011;32493;50.514;9.678;2023-07-13T06:03:34;5.78;;;1.48;;
46745;SDS011;32493;50.514;9.678;2023-07-13T06:05:42;4.50;;;1.33;;
46745;SDS011;32493;50.514;9.678;2023-07-13T06:07:47;3.78;;;1.00;;
46745;SDS011;32493;50.514;9.678;2023-07-13T06:09:53;5.10;;;1.38;;
46745;SDS011;32493;50.514;9.678;2023-07-13T06:14:06;4.22;;;1.17;;
46745;SDS011;32493;50.514;9.678;2023-07-13T06:16:12;5.40;;;1.38;;
46745;SDS011;32493;50.514;9.678;2023-07-13T06:18:19;4.72;;;1.33;;
46745;SDS011;32493;50.514;9.678;2023-07-13T06:20:24;12.25;;;1.88;;
46745;SDS011;32493;50.514;9.678;2023-07-13T06:22:33;8.20;;;1.45;;
46745;SDS011;32493;50.514;9.678;2023-07-13T06:24:39;6.78;;;1.40;;
46745;SDS011;32493;50.514;9.678;2023-07-13T06:26:44;3.03;;;0.70;;
46745;SDS011;32493;50.514;9.678;2023-07-13T06:28:50;2.42;;;0.77;;
46745;SDS011;32493;50.514;9.678;2023-07-13T06:30:58;3.88;;;1.00;;
46745;SDS011;32493;50.514;9.678;2023-07-13T06:33:09;5.90;;;0.95;;
46745;SDS011;32493;50.514;9.678;2023-07-13T06:35:15;3.45;;;0.85;;
46745;SDS011;32493;50.514;9.678;2023-07-13T06:37:21;3.78;;;1.00;;
46745;SDS011;32493;50.514;9.678;2023-07-13T06:39:31;4.32;;;1.15;;
46745;SDS011;32493;50.514;9.678;2023-07-13T06:41:34;4.57;;;1.00;;
46745;SDS011;32493;50.514;9.678;2023-07-13T06:43:44;5.18;;;0.95;;
46745;SDS011;32493;50.514;9.678;2023-07-13T06:45:49;3.00;;;1.10;;
46745;SDS011;32493;50.514;9.678;2023-07-13T06:47:53;5.65;;;0.80;;
46745;SDS011;32493;50.514;9.678;2023-07-13T06:49:59;4.07;;;0.97;;
46745;SDS011;32493;50.514;9.678;2023-07-13T06:52:05;1.90;;;0.70;;
46745;SDS011;32493;50.514;9.678;2023-07-13T06:54:11;2.58;;;1.00;;
46745;SDS011;32493;50.514;9.678;2023-07-13T06:56:20;4.72;;;1.02;;
46745;SDS011;32493;50.514;9.678;2023-07-13T06:58:25;8.07;;;1.10;;
46745;SDS011;32493;50.514;9.678;2023-07-13T07:00:32;3.33;;;0.80;;
46745;SDS011;32493;50.514;9.678;2023-07-13T07:02:38;4.00;;;0.95;;
46745;SDS011;32493;50.514;9.678;2023-07-13T07:04:44;2.90;;;0.63;;
46745;SDS011;32493;50.514;9.678;2023-07-13T07:06:50;3.00;;;0.75;;
46745;SDS011;32493;50.514;9.678;2023-07-13T07:09:00;3.28;;;0.88;;
46745;SDS011;32493;50.514;9.678;2023-07-13T07:11:05;1.08;;;0.55;;
46745;SDS011;32493;50.514;9.678;2023-07-13T07:13:16;4.88;;;0.80;;
46745;SDS011;32493;50.514;9.678;2023-07-13T07:15:21;2.90;;;1.02;;
46745;SDS011;32493;50.514;9.678;2023-07-13T07:17:28;4.28;;;0.93;;
46745;SDS011;32493;50.514;9.678;2023-07-13T07:19:34;3.65;;;0.77;;
46745;SDS011;32493;50.514;9.678;2023-07-13T07:21:40;4.15;;;0.85;;
46745;SDS011;32493;50.514;9.678;2023-07-13T07:23:46;3.92;;;1.08;;
46745;SDS011;32493;50.514;9.678;2023-07-13T07:25:51;3.28;;;1.13;;
46745;SDS011;32493;50.514;9.678;2023-07-13T07:27:57;4.03;;;0.88;;
46745;SDS011;32493;50.514;9.678;2023-07-13T07:30:06;3.42;;;0.70;;
46745;SDS011;32493;50.514;9.678;2023-07-13T07:32:16;3.60;;;0.70;;
46745;SDS011;32493;50.514;9.678;2023-07-13T07:34:24;4.15;;;0.93;;
46745;SDS011;32493;50.514;9.678;2023-07-13T07:36:30;3.05;;;0.80;;
46745;SDS011;32493;50.514;9.678;2023-07-13T07:38:39;6.70;;;1.00;;
46745;SDS011;32493;50.514;9.678;2023-07-13T07:40:44;1.90;;;0.60;;
46745;SDS011;32493;50.514;9.678;2023-07-13T07:42:53;0.80;;;0.43;;
46745;SDS011;32493;50.514;9.678;2023-07-13T07:45:02;2.92;;;0.73;;
46745;SDS011;32493;50.514;9.678;2023-07-13T07:47:13;2.25;;;0.65;;
46745;SDS011;32493;50.514;9.678;2023-07-13T07:49:18;3.33;;;0.70;;
46745;SDS011;32493;50.514;9.678;2023-07-13T07:51:24;3.08;;;0.60;;
46745;SDS011;32493;50.514;9.678;2023-07-13T07:53:30;1.85;;;0.63;;
46745;SDS011;32493;50.514;9.678;2023-07-13T07:55:35;2.65;;;0.75;;
46745;SDS011;32493;50.514;9.678;2023-07-13T07:58:01;3.40;;;0.47;;
46745;SDS011;32493;50.514;9.678;2023-07-13T08:00:30;2.55;;;0.57;;
46745;SDS011;32493;50.514;9.678;2023-07-13T08:02:40;0.77;;;0.60;;
46745;SDS011;32493;50.514;9.678;2023-07-13T08:04:49;4.40;;;0.80;;
46745;SDS011;32493;50.514;9.678;2023-07-13T08:06:58;7.97;;;1.52;;
46745;SDS011;32493;50.514;9.678;2023-07-13T08:09:09;3.90;;;0.60;;
46745;SDS011;32493;50.514;9.678;2023-07-13T08:11:18;2.50;;;0.77;;
46745;SDS011;32493;50.514;9.678;2023-07-13T08:13:27;1.73;;;0.70;;
46745;SDS011;32493;50.514;9.678;2023-07-13T08:15:37;2.25;;;0.68;;
46745;SDS011;32493;50.514;9.678;2023-07-13T08:17:42;2.28;;;0.80;;
46745;SDS011;32493;50.514;9.678;2023-07-13T08:19:49;0.95;;;0.60;;
46745;SDS011;32493;50.514;9.678;2023-07-13T08:21:54;3.53;;;0.80;;
46745;SDS011;32493;50.514;9.678;2023-07-13T08:24:02;3.70;;;0.80;;
46745;SDS011;32493;50.514;9.678;2023-07-13T08:26:09;3.70;;;0.93;;
46745;SDS011;32493;50.514;9.678;2023-07-13T08:28:14;1.80;;;0.55;;
46745;SDS011;32493;50.514;9.678;2023-07-13T08:30:20;3.10;;;0.60;;
46745;SDS011;32493;50.514;9.678;2023-07-13T08:32:28;3.63;;;0.60;;
46745;SDS011;32493;50.514;9.678;2023-07-13T08:34:36;2.30;;;0.60;;
46745;SDS011;32493;50.514;9.678;2023-07-13T08:36:40;1.40;;;0.60;;
46745;SDS011;32493;50.514;9.678;2023-07-13T08:38:46;2.25;;;0.60;;
46745;SDS011;32493;50.514;9.678;2023-07-13T08:40:53;2.03;;;0.63;;
46745;SDS011;32493;50.514;9.678;2023-07-13T08:43:00;4.00;;;0.88;;
46745;SDS011;32493;50.514;9.678;2023-07-13T08:45:12;3.92;;;0.52;;
46745;SDS011;32493;50.514;9.678;2023-07-13T08:47:22;2.63;;;0.70;;
46745;SDS011;32493;50.514;9.678;2023-07-13T08:49:32;1.42;;;0.50;;
46745;SDS011;32493;50.514;9.678;2023-07-13T08:51:40;1.38;;;0.45;;
46745;SDS011;32493;50.514;9.678;2023-07-13T08:53:49;1.98;;;0.80;;
46745;SDS011;32493;50.514;9.678;2023-07-13T08:56:05;1.13;;;0.65;;
46745;SDS011;32493;50.514;9.678;2023-07-13T08:58:21;1.25;;;0.50;;
46745;SDS011;32493;50.514;9.678;2023-07-13T09:00:33;0.95;;;0.40;;
46745;SDS011;32493;50.514;9.678;2023-07-13T09:02:48;0.80;;;0.47;;
46745;SDS011;32493;50.514;9.678;2023-07-13T09:05:04;3.40;;;0.55;;
46745;SDS011;32493;50.514;9.678;2023-07-13T09:07:22;4.18;;;0.70;;
46745;SDS011;32493;50.514;9.678;2023-07-13T09:09:38;2.28;;;0.75;;
46745;SDS011;32493;50.514;9.678;2023-07-13T09:11:52;2.85;;;0.80;;
46745;SDS011;32493;50.514;9.678;2023-07-13T09:14:18;2.05;;;0.70;;
46745;SDS011;32493;50.514;9.678;2023-07-13T09:16:37;2.67;;;0.85;;
46745;SDS011;32493;50.514;9.678;2023-07-13T09:18:48;2.20;;;0.85;;
46745;SDS011;32493;50.514;9.678;2023-07-13T09:21:02;2.75;;;0.68;;
46745;SDS011;32493;50.514;9.678;2023-07-13T09:23:14;1.65;;;0.70;;
46745;SDS011;32493;50.514;9.678;2023-07-13T09:25:24;1.85;;;0.70;;
46745;SDS011;32493;50.514;9.678;2023-07-13T09:27:35;0.60;;;0.40;;
46745;SDS011;32493;50.514;9.678;2023-07-13T09:29:46;2.72;;;0.65;;
46745;SDS011;32493;50.514;9.678;2023-07-13T09:31:55;3.55;;;0.90;;
46745;SDS011;32493;50.514;9.678;2023-07-13T09:34:07;3.25;;;0.52;;
46745;SDS011;32493;50.514;9.678;2023-07-13T09:36:20;1.95;;;0.63;;
46745;SDS011;32493;50.514;9.678;2023-07-13T09:38:29;1.67;;;0.68;;
46745;SDS011;32493;50.514;9.678;2023-07-13T09:40:39;1.58;;;0.50;;
46745;SDS011;32493;50.514;9.678;2023-07-13T09:42:51;0.88;;;0.40;;
46745;SDS011;32493;50.514;9.678;2023-07-13T09:44:58;1.65;;;0.68;;
46745;SDS011;32493;50.514;9.678;2023-07-13T09:47:15;3.55;;;0.50;;
46745;SDS011;32493;50.514;9.678;2023-07-13T09:49:24;1.02;;;0.50;;
46745;SDS011;32493;50.514;9.678;2023-07-13T09:51:33;5.72;;;0.50;;
46745;SDS011;32493;50.514;9.678;2023-07-13T09:53:39;2.30;;;0.60;;
46745;SDS011;32493;50.514;9.678;2023-07-13T09:55:48;2.28;;;0.73;;
46745;SDS011;32493;50.514;9.678;2023-07-13T09:57:56;0.88;;;0.55;;
46745;SDS011;32493;50.514;9.678;2023-07-13T10:00:02;2.55;;;0.47;;
46745;SDS011;32493;50.514;9.678;2023-07-13T10:02:28;1.58;;;0.60;;
46745;SDS011;32493;50.514;9.678;2023-07-13T10:04:35;1.35;;;0.50;;
46745;SDS011;32493;50.514;9.678;2023-07-13T10:06:45;1.63;;;0.40;;
46745;SDS011;32493;50.514;9.678;2023-07-13T10:08:57;1.20;;;0.50;;
46745;SDS011;32493;50.514;9.678;2023-07-13T10:11:09;1.33;;;0.50;;
46745;SDS011;32493;50.514;9.678;2023-07-13T10:13:34;0.82;;;0.60;;
46745;SDS011;32493;50.514;9.678;2023-07-13T10:15:48;0.85;;;0.52;;
46745;SDS011;32493;50.514;9.678;2023-07-13T10:17:54;2.08;;;0.40;;
46745;SDS011;32493;50.514;9.678;2023-07-13T10:20:02;1.48;;;0.40;;
46745;SDS011;32493;50.514;9.678;2023-07-13T10:22:19;0.90;;;0.40;;
46745;SDS011;32493;50.514;9.678;2023-07-13T10:24:32;1.58;;;0.63;;
46745;SDS011;32493;50.514;9.678;2023-07-13T10:26:42;0.90;;;0.40;;
46745;SDS011;32493;50.514;9.678;2023-07-13T10:28:54;1.52;;;0.45;;
46745;SDS011;32493;50.514;9.678;2023-07-13T10:31:06;1.55;;;0.50;;
46745;SDS011;32493;50.514;9.678;2023-07-13T10:33:22;2.00;;;0.50;;
46745;SDS011;32493;50.514;9.678;2023-07-13T10:35:28;0.93;;;0.50;;
46745;SDS011;32493;50.514;9.678;2023-07-13T10:37:38;3.20;;;0.57;;
46745;SDS011;32493;50.514;9.678;2023-07-13T10:39:50;2.15;;;0.60;;
46745;SDS011;32493;50.514;9.678;2023-07-13T10:42:06;2.72;;;0.40;;
46745;SDS011;32493;50.514;9.678;2023-07-13T10:44:18;2.30;;;0.80;;
46745;SDS011;32493;50.514;9.678;2023-07-13T10:46:31;7.53;;;3.47;;
46745;SDS011;32493;50.514;9.678;2023-07-13T10:48:39;1.88;;;0.63;;
46745;SDS011;32493;50.514;9.678;2023-07-13T10:50:52;1.95;;;0.50;;
46745;SDS011;32493;50.514;9.678;2023-07-13T10:53:17;1.15;;;0.40;;
46745;SDS011;32493;50.514;9.678;2023-07-13T10:55:32;0.80;;;0.40;;
46745;SDS011;32493;50.514;9.678;2023-07-13T10:57:43;1.75;;;0.50;;
46745;SDS011;32493;50.514;9.678;2023-07-13T11:04:39;0.50;;;0.30;;
46745;SDS011;32493;50.514;9.678;2023-07-13T11:06:48;1.08;;;0.32;;
46745;SDS011;32493;50.514;9.678;2023-07-13T11:09:03;1.55;;;0.45;;
46745;SDS011;32493;50.514;9.678;2023-07-13T11:11:36;0.88;;;0.40;;
46745;SDS011;32493;50.514;9.678;2023-07-13T11:16:12;0.50;;;0.30;;
46745;SDS011;32493;50.514;9.678;2023-07-13T11:18:48;0.45;;;0.22;;
46745;SDS011;32493;50.514;9.678;2023-07-13T11:23:33;0.50;;;0.40;;
46745;SDS011;32493;50.514;9.678;2023-07-13T11:25:49;0.82;;;0.45;;
46745;SDS011;32493;50.514;9.678;2023-07-13T11:28:06;0.60;;;0.40;;
46745;SDS011;32493;50.514;9.678;2023-07-13T11:30:35;3.00;;;0.60;;
46745;SDS011;32493;50.514;9.678;2023-07-13T11:32:44;2.83;;;0.45;;
46745;SDS011;32493;50.514;9.678;2023-07-13T11:34:54;0.90;;;0.30;;
46745;SDS011;32493;50.514;9.678;2023-07-13T11:37:00;1.27;;;0.50;;
46745;SDS011;32493;50.514;9.678;2023-07-13T11:39:12;2.22;;;0.40;;
46745;SDS011;32493;50.514;9.678;2023-07-13T11:41:29;0.50;;;0.32;;
46745;SDS011;32493;50.514;9.678;2023-07-13T11:43:40;1.25;;;0.40;;
46745;SDS011;32493;50.514;9.678;2023-07-13T11:45:46;1.42;;;0.50;;
46745;SDS011;32493;50.514;9.678;2023-07-13T11:47:57;0.35;;;0.30;;
46745;SDS011;32493;50.514;9.678;2023-07-13T11:50:06;0.63;;;0.40;;
46745;SDS011;32493;50.514;9.678;2023-07-13T11:52:26;0.88;;;0.38;;
46745;SDS011;32493;50.514;9.678;2023-07-13T11:54:43;1.50;;;0.40;;
46745;SDS011;32493;50.514;9.678;2023-07-13T11:57:06;1.15;;;0.40;;
46745;SDS011;32493;50.514;9.678;2023-07-13T11:59:25;1.08;;;0.38;;
46745;SDS011;32493;50.514;9.678;2023-07-13T12:01:32;3.38;;;0.80;;
46745;SDS011;32493;50.514;9.678;2023-07-13T12:03:38;0.73;;;0.38;;
46745;SDS011;32493;50.514;9.678;2023-07-13T12:05:56;1.85;;;0.43;;
46745;SDS011;32493;50.514;9.678;2023-07-13T12:08:11;1.00;;;0.52;;
46745;SDS011;32493;50.514;9.678;2023-07-13T12:10:25;2.17;;;0.60;;
46745;SDS011;32493;50.514;9.678;2023-07-13T12:12:37;0.68;;;0.30;;
46745;SDS011;32493;50.514;9.678;2023-07-13T12:14:50;1.08;;;0.63;;
46745;SDS011;32493;50.514;9.678;2023-07-13T12:16:56;1.55;;;0.50;;
46745;SDS011;32493;50.514;9.678;2023-07-13T12:19:02;1.73;;;0.43;;
46745;SDS011;32493;50.514;9.678;2023-07-13T12:23:28;0.82;;;0.40;;
46745;SDS011;32493;50.514;9.678;2023-07-13T12:25:35;0.90;;;0.60;;
46745;SDS011;32493;50.514;9.678;2023-07-13T12:27:44;0.90;;;0.68;;
46745;SDS011;32493;50.514;9.678;2023-07-13T12:29:52;1.48;;;0.65;;
46745;SDS011;32493;50.514;9.678;2023-07-13T12:32:07;0.68;;;0.50;;
46745;SDS011;32493;50.514;9.678;2023-07-13T12:34:15;1.73;;;0.60;;
46745;SDS011;32493;50.514;9.678;2023-07-13T12:36:20;1.20;;;0.65;;
46745;SDS011;32493;50.514;9.678;2023-07-13T12:38:25;2.13;;;0.60;;
46745;SDS011;32493;50.514;9.678;2023-07-13T12:40:34;1.75;;;0.60;;
46745;SDS011;32493;50.514;9.678;2023-07-13T12:42:39;1.02;;;0.40;;
46745;SDS011;32493;50.514;9.678;2023-07-13T12:44:48;1.42;;;0.60;;
46745;SDS011;32493;50.514;9.678;2023-07-13T12:46:56;1.58;;;0.38;;
46745;SDS011;32493;50.514;9.678;2023-07-13T12:49:01;1.60;;;0.73;;
46745;SDS011;32493;50.514;9.678;2023-07-13T12:51:21;2.20;;;0.80;;
46745;SDS011;32493;50.514;9.678;2023-07-13T12:53:28;0.85;;;0.55;;
46745;SDS011;32493;50.514;9.678;2023-07-13T12:55:40;0.82;;;0.57;;
46745;SDS011;32493;50.514;9.678;2023-07-13T12:57:49;2.33;;;0.80;;
46745;SDS011;32493;50.514;9.678;2023-07-13T13:00:02;1.30;;;0.73;;
46745;SDS011;32493;50.514;9.678;2023-07-13T13:02:31;0.98;;;0.50;;
46745;SDS011;32493;50.514;9.678;2023-07-13T13:04:39;1.10;;;0.60;;
46745;SDS011;32493;50.514;9.678;2023-07-13T13:06:46;1.13;;;0.60;;
46745;SDS011;32493;50.514;9.678;2023-07-13T13:08:52;2.35;;;0.70;;
46745;SDS011;32493;50.514;9.678;2023-07-13T13:11:00;2.17;;;0.80;;
46745;SDS011;32493;50.514;9.678;2023-07-13T13:13:06;2.08;;;0.80;;
46745;SDS011;32493;50.514;9.678;2023-07-13T13:15:16;1.38;;;0.60;;
46745;SDS011;32493;50.514;9.678;2023-07-13T13:17:27;1.88;;;0.80;;
46745;SDS011;32493;50.514;9.678;2023-07-13T13:19:36;1.63;;;0.60;;
46745;SDS011;32493;50.514;9.678;2023-07-13T13:21:43;2.42;;;0.68;;